createdAt,value
2022-08-14T00:03:21.063Z,99610.81
2022-08-14T00:08:43.506Z,99612.56
2022-08-14T00:13:52.733Z,99607.41
2022-08-14T00:19:06.514Z,99604.09
2022-08-14T00:24:28.455Z,99614.69
2022-08-14T00:29:40.588Z,99608.72
2022-08-14T00:34:47.022Z,99607.94
2022-08-14T00:39:51.281Z,99609.03
2022-08-14T00:44:56.597Z,99609.13
2022-08-14T00:50:00.093Z,99608.41
2022-08-14T00:55:04.144Z,99612.13
2022-08-14T01:00:34.089Z,99608.69
2022-08-14T01:05:50.901Z,99612.50
2022-08-14T01:10:56.422Z,99604.75
2022-08-14T01:16:03.877Z,99611.78
2022-08-14T01:21:09.346Z,99615.44
2022-08-14T01:26:34.835Z,99609.38
2022-08-14T01:31:44.403Z,99615.69
2022-08-14T01:36:54.234Z,99618.44
2022-08-14T01:42:01.149Z,99620.09
2022-08-14T01:47:21.738Z,99620.09
2022-08-14T01:52:34.291Z,99616.69
2022-08-14T01:58:19.014Z,99620.25
2022-08-14T02:03:14.025Z,99628.25
2022-08-14T02:08:22.410Z,99630.06
2022-08-14T02:13:40.235Z,99631.72
2022-08-14T02:18:47.453Z,99618.84
2022-08-14T02:23:55.309Z,99630.97
2022-08-14T02:29:05.707Z,99631.78
2022-08-14T02:34:20.142Z,99640.50
2022-08-14T02:39:31.355Z,99637.75
2022-08-14T02:44:39.798Z,99637.59
2022-08-14T02:49:43.538Z,99644.44
2022-08-14T02:54:47.056Z,99644.16
2022-08-14T02:59:53.979Z,99648.25
2022-08-14T03:04:57.678Z,99650.59
2022-08-14T03:10:25.508Z,99653.53
2022-08-14T03:15:26.911Z,99655.88
2022-08-14T03:20:31.407Z,99653.41
2022-08-14T03:25:37.287Z,99652.56
2022-08-14T03:30:42.745Z,99652.38
2022-08-14T03:35:59.802Z,99652.53
2022-08-14T03:41:14.472Z,99653.66
2022-08-14T03:46:39.121Z,99646.50
2022-08-14T03:51:45.770Z,99651.91
2022-08-14T03:56:50.554Z,99645.78
2022-08-14T04:02:01.743Z,99649.22
2022-08-14T04:07:05.922Z,99645.09
2022-08-14T04:12:13.462Z,99649.63
2022-08-14T04:17:18.385Z,99656.69
2022-08-14T04:22:22.566Z,99655.63
2022-08-14T04:27:27.231Z,99657.38
2022-08-14T04:33:01.075Z,99658.94
2022-08-14T04:38:37.195Z,99665.94
2022-08-14T04:43:40.211Z,99665.50
2022-08-14T04:48:51.367Z,99669.94
2022-08-14T04:54:00.250Z,99662.22
2022-08-14T04:59:10.561Z,99672.38
2022-08-14T05:04:16.298Z,99666.59
2022-08-14T05:09:24.098Z,99662.59
2022-08-14T05:14:45.928Z,99661.50
2022-08-14T05:21:04.183Z,99662.94
2022-08-14T05:25:15.382Z,99667.31
2022-08-14T05:30:19.763Z,99655.88
2022-08-14T05:35:24.474Z,99658.06
2022-08-14T05:40:28.197Z,99651.25
2022-08-14T05:45:31.547Z,99654.03
2022-08-14T05:50:38.613Z,99644.94
2022-08-14T05:55:44.953Z,99642.84
2022-08-14T06:00:49.904Z,99640.75
2022-08-14T06:05:56.204Z,99644.59
2022-08-14T06:11:03.711Z,99642.84
2022-08-14T06:16:07.546Z,99643.53
2022-08-14T06:21:15.883Z,99638.59
2022-08-14T06:26:22.169Z,99630.22
2022-08-14T06:31:26.011Z,99643.72
2022-08-14T06:36:30.759Z,99633.31
2022-08-14T06:41:57.047Z,99638.09
2022-08-14T06:46:57.494Z,99635.91
2022-08-14T06:52:03.247Z,99636.00
2022-08-14T06:57:08.845Z,99630.88
2022-08-14T07:02:30.268Z,99628.13
2022-08-14T07:07:39.439Z,99632.75
2022-08-14T07:13:00.900Z,99636.19
2022-08-14T07:18:08.812Z,99634.91
2022-08-14T07:23:20.623Z,99625.28
2022-08-14T07:28:27.215Z,99625.25
2022-08-14T07:33:33.489Z,99628.22
2022-08-14T07:38:41.158Z,99618.78
2022-08-14T07:43:52.942Z,99623.22
2022-08-14T07:49:00.101Z,99620.19
2022-08-14T07:54:11.047Z,99619.00
2022-08-14T07:59:16.516Z,99617.59
2022-08-14T08:04:27.631Z,99620.31
2022-08-14T08:09:36.189Z,99618.94
2022-08-14T08:14:56.081Z,99616.91
2022-08-14T08:20:04.781Z,99615.72
2022-08-14T08:25:13.764Z,99606.25
2022-08-14T08:30:17.589Z,99612.47
2022-08-14T08:35:23.598Z,99597.00
2022-08-14T08:40:32.426Z,99596.81
2022-08-14T08:45:37.606Z,99602.41
2022-08-14T08:55:46.387Z,99588.03
2022-08-14T09:00:54.282Z,99578.47
2022-08-14T09:05:59.659Z,99583.78
2022-08-14T09:11:19.678Z,99568.88
2022-08-14T09:16:26.349Z,99565.19
2022-08-14T09:21:31.257Z,99569.75
2022-08-14T09:26:37.406Z,99571.56
2022-08-14T09:31:52.767Z,99557.59
2022-08-14T09:37:17.213Z,99569.59
2022-08-14T09:42:36.840Z,99554.81
2022-08-14T09:47:51.950Z,99558.50
2022-08-14T09:52:58.495Z,99556.53
2022-08-14T09:58:19.961Z,99556.84
2022-08-14T10:03:33.272Z,99559.22
2022-08-14T10:08:50.959Z,99552.66
2022-08-14T10:14:06.508Z,99552.25
2022-08-14T10:19:13.621Z,99558.00
2022-08-14T10:24:36.371Z,99554.41
2022-08-14T10:29:45.133Z,99551.78
2022-08-14T10:34:52.769Z,99538.81
2022-08-14T10:40:10.480Z,99547.13
2022-08-14T10:45:33.872Z,99541.06
2022-08-14T10:50:46.578Z,99538.13
2022-08-14T10:55:50.429Z,99536.50
2022-08-14T11:01:00.718Z,99536.41
2022-08-14T11:06:18.343Z,99539.47
2022-08-14T11:11:23.110Z,99541.19
2022-08-14T11:16:29.568Z,99536.25
2022-08-14T11:21:34.456Z,99539.34
2022-08-14T11:26:45.251Z,99534.91
2022-08-14T11:31:51.957Z,99534.00
2022-08-14T11:37:09.667Z,99538.00
2022-08-14T11:43:07.985Z,99523.19
2022-08-14T11:48:12.901Z,99526.13
2022-08-14T11:53:22.906Z,99526.56
2022-08-14T11:58:29.703Z,99520.06
2022-08-14T12:03:51.300Z,99522.75
2022-08-14T12:09:00.051Z,99515.69
2022-08-14T12:14:13.439Z,99509.63
2022-08-14T12:19:46.014Z,99510.16
2022-08-14T12:24:54.994Z,99510.59
2022-08-14T12:30:00.174Z,99508.41
2022-08-14T12:35:05.561Z,99510.28
2022-08-14T12:40:14.050Z,99505.84
2022-08-14T12:45:20.533Z,99502.03
2022-08-14T12:50:36.911Z,99506.00
2022-08-14T12:56:21.286Z,99503.03
2022-08-14T13:01:20.624Z,99497.69
2022-08-14T13:06:28.983Z,99492.59
2022-08-14T13:11:41.050Z,99487.84
2022-08-14T13:16:50.464Z,99490.38
2022-08-14T13:21:58.483Z,99488.75
2022-08-14T13:27:12.126Z,99482.75
2022-08-14T13:32:16.500Z,99485.78
2022-08-14T13:37:22.862Z,99476.19
2022-08-14T13:42:30.694Z,99476.19
2022-08-14T13:47:36.018Z,99466.63
2022-08-14T13:52:59.035Z,99458.34
2022-08-14T13:58:05.206Z,99465.00
2022-08-14T14:03:10.495Z,99462.09
2022-08-14T14:08:43.726Z,99456.34
2022-08-14T14:13:44.619Z,99463.66
2022-08-14T14:18:51.321Z,99466.16
2022-08-14T14:23:58.156Z,99471.06
2022-08-14T14:29:03.837Z,99465.69
2022-08-14T14:34:29.199Z,99469.59
2022-08-14T14:39:37.968Z,99460.69
2022-08-14T14:45:06.143Z,99462.53
2022-08-14T14:50:13.333Z,99468.72
2022-08-14T14:55:19.881Z,99467.06
2022-08-14T15:00:23.709Z,99458.50
2022-08-14T15:05:28.432Z,99455.19
2022-08-14T15:10:37.843Z,99454.72
2022-08-14T15:15:44.195Z,99456.63
2022-08-14T15:20:47.713Z,99459.16
2022-08-14T15:25:56.457Z,99464.50
2022-08-14T15:30:59.798Z,99457.13
2022-08-14T15:36:04.517Z,99462.09
2022-08-14T15:41:21.857Z,99461.34
2022-08-14T15:46:43.098Z,99460.09
2022-08-14T15:51:50.883Z,99466.09
2022-08-14T15:57:00.216Z,99474.78
2022-08-14T16:02:04.382Z,99465.56
2022-08-14T16:07:08.970Z,99466.25
2022-08-14T16:12:14.828Z,99469.69
2022-08-14T16:17:20.276Z,99464.25
2022-08-14T16:22:57.394Z,99456.56
2022-08-14T16:27:52.134Z,99470.00
2022-08-14T16:32:57.630Z,99475.00
2022-08-14T16:38:19.310Z,99473.06
2022-08-14T16:43:27.351Z,99467.41
2022-08-14T16:48:57.577Z,99470.25
2022-08-14T16:53:55.851Z,99471.41
2022-08-14T16:59:12.137Z,99477.75
2022-08-14T17:04:25.311Z,99476.69
2022-08-14T17:09:36.171Z,99473.31
2022-08-14T17:14:54.228Z,99481.59
2022-08-14T17:20:33.932Z,99484.53
2022-08-14T17:25:30.039Z,99483.47
2022-08-14T17:30:49.568Z,99497.81
2022-08-14T17:36:10.619Z,99498.81
2022-08-14T17:41:32.642Z,99503.13
2022-08-14T17:46:43.919Z,99506.69
2022-08-14T17:52:01.751Z,99514.44
2022-08-14T17:57:10.549Z,99513.88
2022-08-14T18:02:22.714Z,99507.88
2022-08-14T18:07:59.483Z,99515.75
2022-08-14T18:13:02.010Z,99514.91
2022-08-14T18:18:09.168Z,99502.06
2022-08-14T18:23:13.131Z,99502.00
2022-08-14T18:28:46.584Z,99505.75
2022-08-14T18:33:53.542Z,99507.03
2022-08-14T18:39:25.814Z,99502.72
2022-08-14T18:45:12.864Z,99506.06
2022-08-14T18:50:27.810Z,99502.97
2022-08-14T18:55:54.028Z,99502.13
2022-08-14T19:01:01.064Z,99520.41
2022-08-14T19:06:07.716Z,99513.91
2022-08-14T19:11:51.680Z,99517.78
2022-08-14T19:16:55.617Z,99513.25
2022-08-14T19:22:02.020Z,99513.41
2022-08-14T19:27:19.421Z,99517.22
2022-08-14T19:32:40.874Z,99518.34
2022-08-14T19:37:52.034Z,99533.53
2022-08-14T19:42:59.302Z,99531.03
2022-08-14T19:48:03.441Z,99527.63
2022-08-14T19:53:11.966Z,99535.81
2022-08-14T19:58:28.008Z,99527.22
2022-08-14T20:03:59.348Z,99530.66
2022-08-14T20:11:07.228Z,99528.38
2022-08-14T20:14:31.363Z,99532.00
2022-08-14T20:19:37.848Z,99534.84
2022-08-14T20:24:47.567Z,99542.03
2022-08-14T20:30:29.738Z,99536.00
2022-08-14T20:35:36.343Z,99533.78
2022-08-14T20:40:50.575Z,99531.59
2022-08-14T20:45:54.084Z,99527.44
2022-08-14T20:50:58.586Z,99525.25
2022-08-14T20:56:28.943Z,99534.94
2022-08-14T21:01:36.521Z,99532.59
2022-08-14T21:07:23.468Z,99543.47
2022-08-14T21:12:06.814Z,99537.44
2022-08-14T21:17:32.204Z,99542.97
2022-08-14T21:22:45.125Z,99539.53
2022-08-14T21:27:56.721Z,99540.69
2022-08-14T21:33:02.519Z,99548.69
2022-08-14T21:38:11.686Z,99550.97
2022-08-14T21:43:24.042Z,99544.22
2022-08-14T21:48:31.999Z,99558.38
2022-08-14T21:53:36.759Z,99556.00
2022-08-14T21:59:04.555Z,99552.78
2022-08-14T22:04:33.817Z,99549.56
2022-08-14T22:09:36.638Z,99563.88
2022-08-14T22:14:43.819Z,99560.63
2022-08-14T22:19:55.068Z,99568.75
2022-08-14T22:25:00.945Z,99573.44
2022-08-14T22:30:08.205Z,99566.25
2022-08-14T22:35:17.838Z,99566.59
2022-08-14T22:41:04.120Z,99562.69
2022-08-14T22:45:55.645Z,99554.38
2022-08-14T22:51:01.361Z,99562.28
2022-08-14T22:56:05.385Z,99566.13
2022-08-14T23:01:55.055Z,99569.81
2022-08-14T23:07:04.808Z,99569.31
2022-08-14T23:12:27.536Z,99572.34
2022-08-14T23:17:38.614Z,99573.47
2022-08-14T23:22:45.671Z,99583.41
2022-08-14T23:28:02.719Z,99581.94
2022-08-14T23:33:07.138Z,99581.41
2022-08-14T23:38:13.251Z,99555.91
2022-08-14T23:43:34.414Z,99594.47
2022-08-14T23:48:40.423Z,99598.97
2022-08-14T23:53:53.191Z,99579.13
2022-08-14T23:58:57.227Z,99569.22
